Time;durP1;ratioP1;P1;durP2;ratioP2;P2;SDS_P1;SDS_P2;PMS_P1;PMS_P2;Temp;Humidity;BMP_temperature;BMP_pressure;BME280_temperature;BME280_humidity;BME280_pressure;Samples;Min_cycle;Max_cycle;Signal;HPM_P1;HPM_P2
2022/05/06 00:01:20;;;;;;;4.63;3.10;;;11.40;99.90;;;-141.84;50.18;18092.81;5111918;28;20302;-60
2022/05/06 00:03:49;;;;;;;5.47;3.77;;;11.40;99.90;;;-141.84;49.78;18131.41;5111822;28;20227;-60
2022/05/06 00:06:17;;;;;;;3.97;3.30;;;11.40;99.90;;;-141.84;50.07;18096.88;5111906;28;20732;-60
2022/05/06 00:08:45;;;;;;;3.57;3.20;;;11.40;99.90;;;-141.84;50.90;18062.34;5111795;28;20231;-61
2022/05/06 00:11:13;;;;;;;4.10;3.10;;;11.30;99.90;;;-141.84;51.21;18072.50;5111836;28;20724;-61
2022/05/06 00:13:41;;;;;;;9.53;3.50;;;11.20;99.90;;;-141.84;51.26;18070.47;5112054;28;20299;-64
2022/05/06 00:16:10;;;;;;;3.90;3.30;;;11.20;99.90;;;-141.84;52.02;18058.28;5111959;28;20301;-60
2022/05/06 00:18:38;;;;;;;4.63;3.40;;;11.10;99.90;;;-141.84;51.76;18062.34;5111619;28;20239;-62
2022/05/06 00:21:07;;;;;;;5.17;3.13;;;11.10;99.90;;;-141.84;51.92;18050.16;5100130;28;20307;-62
2022/05/06 00:23:35;;;;;;;5.17;3.60;;;11.10;99.90;;;-141.84;52.12;18058.28;5091347;28;20204;-60
2022/05/06 00:26:04;;;;;;;3.80;3.43;;;11.10;99.90;;;-141.84;52.80;18054.22;5091580;28;20296;-61
2022/05/06 00:28:32;;;;;;;4.20;3.27;;;11.10;99.90;;;-141.84;52.99;18001.41;5090845;28;20724;-62
2022/05/06 00:31:00;;;;;;;4.60;3.30;;;11.00;99.90;;;-141.84;53.28;18021.72;5090825;28;20319;-62
2022/05/06 00:33:29;;;;;;;4.07;3.67;;;11.00;99.90;;;-141.84;53.16;18013.59;5091254;28;20236;-61
2022/05/06 00:36:00;;;;;;;4.33;3.57;;;11.00;99.90;;;-141.84;52.81;17995.31;5090747;28;20636;-61
2022/05/06 00:38:31;;;;;;;5.73;3.77;;;11.00;99.90;;;-141.84;53.25;17989.22;5090211;28;20670;-61
2022/05/06 00:40:59;;;;;;;6.07;3.47;;;10.90;99.90;;;-141.84;53.34;18001.41;5091130;28;20223;-60
2022/05/06 00:43:27;;;;;;;6.77;3.63;;;11.00;99.90;;;-141.84;53.67;18003.44;5090379;28;20282;-61
2022/05/06 00:45:57;;;;;;;5.87;3.73;;;10.90;99.90;;;-141.84;54.16;18001.41;5090294;28;20594;-59
2022/05/06 00:48:28;;;;;;;5.07;3.67;;;10.90;99.90;;;-141.84;54.22;17983.13;5090889;28;20230;-60
2022/05/06 00:51:01;;;;;;;4.40;4.00;;;10.80;99.90;;;-141.84;53.86;17981.09;5100297;28;20223;-60
2022/05/06 00:53:31;;;;;;;4.87;4.03;;;10.80;99.90;;;-141.84;54.55;17972.97;5111084;28;20207;-61
2022/05/06 00:55:59;;;;;;;5.27;3.80;;;10.80;99.90;;;-141.84;54.35;17981.09;5111582;28;20196;-61
2022/05/06 00:58:30;;;;;;;6.83;4.00;;;10.70;99.90;;;-141.84;54.83;17954.69;5110968;28;20233;-60
2022/05/06 01:00:58;;;;;;;4.73;4.03;;;10.70;99.90;;;-141.84;54.52;17993.28;5110630;28;20322;-60
2022/05/06 01:03:26;;;;;;;4.50;4.10;;;10.70;99.90;;;-141.84;54.66;17952.66;5110848;28;20250;-60
2022/05/06 01:05:55;;;;;;;5.93;4.33;;;10.70;99.90;;;-141.84;54.76;17954.69;5110475;28;20277;-61
2022/05/06 01:08:23;;;;;;;7.27;4.37;;;10.70;99.90;;;-141.84;55.51;17928.28;5110954;28;20294;-61
2022/05/06 01:10:52;;;;;;;7.63;3.87;;;10.60;99.90;;;-141.84;55.85;17950.63;5111136;28;20575;-60
2022/05/06 01:13:21;;;;;;;4.77;4.27;;;10.50;99.90;;;-141.84;56.47;17968.91;5110245;28;20497;-60
2022/05/06 01:15:49;;;;;;;5.17;4.10;;;10.40;99.90;;;-141.84;55.04;17936.41;5110537;28;20259;-62
2022/05/06 01:18:17;;;;;;;6.33;4.50;;;10.50;99.90;;;-141.84;55.98;17962.81;5110618;28;20227;-61
2022/05/06 01:20:51;;;;;;;6.50;4.60;;;10.50;99.90;;;-141.84;56.18;17916.06;5101998;28;20307;-62
2022/05/06 01:23:23;;;;;;;6.53;4.53;;;10.50;99.90;;;-141.84;55.99;17960.78;5090642;28;20191;-62
2022/05/06 01:25:52;;;;;;;4.10;3.80;;;10.50;99.90;;;-141.84;56.77;17916.06;5090307;28;20220;-60
2022/05/06 01:28:23;;;;;;;5.10;4.17;;;10.40;99.90;;;-141.84;57.17;17903.88;5089682;28;20786;-61
2022/05/06 01:31:00;;;;;;;5.87;4.03;;;10.40;99.90;;;-141.84;57.20;17883.56;5089782;28;20350;-60
2022/05/06 01:33:31;;;;;;;4.97;4.47;;;10.40;99.90;;;-141.84;57.74;17899.81;5089891;28;20242;-60
2022/05/06 01:36:04;;;;;;;4.70;4.30;;;10.30;99.90;;;-141.84;58.12;17895.75;5090012;28;20651;-61
2022/05/06 01:38:41;;;;;;;5.73;4.47;;;10.30;99.90;;;-141.84;58.32;17883.56;5089889;28;20212;-61
2022/05/06 01:41:17;;;;;;;5.10;4.30;;;10.30;99.90;;;-141.84;58.37;17885.59;5090255;28;20180;-61
2022/05/06 01:43:52;;;;;;;6.20;4.40;;;10.30;99.90;;;-141.84;58.25;17903.88;5089878;28;20698;-61
2022/05/06 01:46:23;;;;;;;5.43;4.47;;;10.30;99.90;;;-141.84;58.40;17920.13;5089494;28;20233;-61
2022/05/06 01:48:53;;;;;;;5.37;4.50;;;10.30;99.90;;;-141.84;59.13;17887.63;5089372;28;20224;-61
2022/05/06 01:51:23;;;;;;;6.67;4.70;;;10.20;99.90;;;-141.84;59.25;17871.38;5102306;28;20227;-62
2022/05/06 01:53:52;;;;;;;6.03;4.27;;;10.30;99.90;;;-141.84;59.80;17857.16;5110227;28;20227;-59
2022/05/06 01:56:21;;;;;;;7.63;4.47;;;10.20;99.90;;;-141.84;59.72;17842.94;5109761;28;20573;-60
2022/05/06 01:58:50;;;;;;;5.43;4.07;;;10.20;99.90;;;-141.84;59.89;17873.41;5110568;28;20203;-60
2022/05/06 02:01:18;;;;;;;7.47;4.33;;;10.20;99.90;;;-141.84;60.11;17838.88;5109807;28;20249;-61
2022/05/06 02:06:32;;;;;;;5.07;4.57;;;10.20;99.90;;;-141.84;60.11;17822.63;5109631;28;20726;-59
2022/05/06 02:09:01;;;;;;;4.70;4.30;;;10.20;99.90;;;-141.84;60.70;17836.84;5109434;28;20298;-60
2022/05/06 02:11:29;;;;;;;4.87;4.40;;;10.20;99.90;;;-141.84;60.78;17844.97;5109365;28;20785;-60
2022/05/06 02:13:58;;;;;;;4.80;4.30;;;10.20;99.90;;;-141.84;61.08;17830.75;5110176;28;20225;-61
2022/05/06 02:16:25;;;;;;;5.43;4.30;;;10.10;99.90;;;-141.84;60.59;17820.59;5109907;28;20753;-61
2022/05/06 02:18:53;;;;;;;5.83;4.40;;;10.20;99.90;;;-141.84;61.09;17810.44;5109948;28;20302;-60
2022/05/06 02:21:21;;;;;;;4.73;4.33;;;10.10;99.90;;;-141.84;60.66;17832.78;5096131;28;20224;-61
2022/05/06 02:23:49;;;;;;;6.77;4.10;;;10.10;99.90;;;-141.84;60.57;17840.91;5089616;28;20783;-61
2022/05/06 02:26:19;;;;;;;7.50;5.17;;;10.20;99.90;;;-141.84;60.68;17830.75;5089054;28;20317;-60
2022/05/06 02:28:47;;;;;;;6.60;4.70;;;10.20;99.90;;;-141.84;60.91;17824.66;5090008;28;20291;-62
2022/05/06 02:34:00;;;;;;;5.10;4.30;;;10.10;99.90;;;-141.84;62.79;17812.47;5089319;28;20665;-62
2022/05/06 02:36:28;;;;;;;4.90;4.23;;;10.00;99.90;;;-141.84;63.27;17786.06;5089030;28;20762;-60
2022/05/06 02:38:56;;;;;;;4.83;4.37;;;10.00;99.90;;;-141.84;64.00;17784.03;5088850;28;20657;-61
2022/05/06 02:41:26;;;;;;;6.27;4.50;;;9.90;99.90;;;-141.84;63.92;17784.03;5089472;28;20211;-61
2022/05/06 02:43:54;;;;;;;5.90;4.47;;;9.90;99.90;;;-141.84;64.81;17745.44;5090126;28;20200;-62
2022/05/06 02:46:22;;;;;;;5.80;4.70;;;9.80;99.90;;;-141.84;64.42;17806.38;5089269;28;20226;-60
2022/05/06 02:48:50;;;;;;;6.70;5.03;;;9.80;99.90;;;-141.84;63.57;17796.22;5088999;28;20250;-60
2022/05/06 02:51:18;;;;;;;5.53;5.03;;;9.90;99.90;;;-141.84;63.54;17767.78;5101930;28;20243;-61
2022/05/06 02:53:45;;;;;;;6.40;4.70;;;9.80;99.90;;;-141.84;63.99;17753.56;5109623;28;20231;-61
2022/05/06 02:56:13;;;;;;;5.23;4.73;;;9.90;99.90;;;-141.84;64.49;17777.94;5110040;28;20200;-60
2022/05/06 02:58:43;;;;;;;6.10;5.10;;;9.80;99.90;;;-141.84;65.62;17739.34;5109478;28;20211;-61
2022/05/06 03:01:11;;;;;;;5.07;4.57;;;9.80;99.90;;;-141.84;67.36;17725.13;5110760;28;20223;-61
2022/05/06 03:03:39;;;;;;;5.17;4.67;;;9.70;99.90;;;-141.84;68.64;17686.53;5112892;28;20271;-60
2022/05/06 03:06:07;;;;;;;7.83;5.20;;;9.50;99.90;;;-141.84;68.78;17676.38;5112880;28;20227;-60
2022/05/06 03:08:35;;;;;;;4.83;4.27;;;9.50;99.90;;;-141.84;68.73;17674.34;5113004;28;20210;-61
2022/05/06 03:11:04;;;;;;;6.57;4.77;;;9.50;99.90;;;-141.84;69.42;17647.94;5113611;28;20203;-60
2022/05/06 03:13:32;;;;;;;5.90;5.00;;;9.40;99.90;;;-141.84;69.68;17645.91;5112500;28;20603;-60
2022/05/06 03:16:01;;;;;;;5.83;4.83;;;9.40;99.90;;;-141.84;71.26;17639.81;5112808;28;20223;-61
2022/05/06 03:18:29;;;;;;;7.20;5.07;;;9.30;99.90;;;-141.84;70.63;17631.69;5112601;28;20728;-59
2022/05/06 03:20:57;;;;;;;6.53;5.30;;;9.30;99.90;;;-141.84;69.58;17678.41;5102380;28;20360;-61
2022/05/06 03:23:25;;;;;;;5.40;4.90;;;9.30;99.90;;;-141.84;68.81;17637.78;5092222;28;20200;-60
2022/05/06 03:25:53;;;;;;;7.10;5.07;;;9.40;99.90;;;-141.84;68.26;17668.25;5092935;28;20283;-61
2022/05/06 03:28:21;;;;;;;6.37;5.20;;;9.50;99.90;;;-141.84;67.92;17684.50;5091915;28;20286;-61
2022/05/06 03:30:49;;;;;;;7.03;5.37;;;9.60;99.90;;;-141.84;67.24;17684.50;5092174;28;20228;-61
2022/05/06 03:33:19;;;;;;;5.27;4.77;;;9.70;99.90;;;-141.84;68.12;17672.31;5092014;28;20227;-61
2022/05/06 03:35:47;;;;;;;5.77;4.53;;;9.70;99.90;;;-141.84;68.89;17664.19;5091944;28;20314;-61
2022/05/06 03:38:15;;;;;;;6.67;5.47;;;9.60;99.90;;;-141.84;68.94;17631.69;5092612;28;20295;-60
2022/05/06 03:40:43;;;;;;;7.53;5.03;;;9.60;99.90;;;-141.84;70.14;17647.94;5091732;28;20294;-60
2022/05/06 03:43:11;;;;;;;5.90;4.97;;;9.50;99.90;;;-141.84;69.57;17641.84;5091555;28;20220;-59
2022/05/06 03:45:39;;;;;;;6.97;4.90;;;9.50;99.90;;;-141.84;70.26;17635.75;5091833;28;20675;-58
2022/05/06 03:48:08;;;;;;;8.07;5.60;;;9.50;99.90;;;-141.84;71.59;17582.94;5091923;28;20276;-58
2022/05/06 03:53:23;;;;;;;7.97;5.10;;;9.40;99.90;;;-141.84;73.40;17574.81;5112172;28;20299;-58
2022/05/06 03:55:51;;;;;;;6.90;5.50;;;9.40;99.90;;;-141.84;74.71;17562.63;5112388;28;20238;-59
2022/05/06 03:58:19;;;;;;;6.77;5.10;;;9.30;99.90;;;-141.84;73.79;17562.63;5111586;28;20321;-58
2022/05/06 04:00:47;;;;;;;6.40;4.70;;;9.40;99.90;;;-141.84;73.13;17558.56;5111580;28;20333;-59
2022/05/06 04:03:15;;;;;;;6.67;5.47;;;9.40;99.90;;;-141.84;74.35;17544.34;5091241;28;20246;-59
2022/05/06 04:05:45;;;;;;;5.90;4.83;;;9.40;99.90;;;-141.84;75.58;17517.94;5091644;28;20267;-59
2022/05/06 04:08:13;;;;;;;5.57;5.03;;;9.40;99.90;;;-141.84;74.56;17546.38;5091913;28;20210;-58
2022/05/06 04:10:41;;;;;;;6.93;5.30;;;9.40;99.90;;;-141.84;73.72;17574.81;5091044;28;20235;-58
2022/05/06 04:13:09;;;;;;;6.80;4.90;;;9.40;99.90;;;-141.84;72.88;17578.88;5090017;28;20224;-56
2022/05/06 04:15:38;;;;;;;5.87;5.27;;;9.50;99.90;;;-141.84;73.06;17580.91;5090920;28;20315;-58
2022/05/06 04:18:06;;;;;;;6.80;5.10;;;9.50;99.90;;;-141.84;73.42;17554.50;5090989;28;20227;-59
2022/05/06 04:23:30;;;;;;;7.90;5.50;;;9.60;99.90;;;-141.84;73.98;17546.38;5091142;28;20208;-59
2022/05/06 04:26:00;;;;;;;6.90;5.90;;;9.60;99.90;;;-141.84;73.48;17546.38;5091428;28;20235;-59
2022/05/06 04:28:29;;;;;;;8.80;7.90;;;9.60;99.90;;;-141.84;73.43;17542.31;5090824;28;20228;-57
2022/05/06 04:30:58;;;;;;;9.23;7.70;;;9.60;99.90;;;-141.84;72.40;17556.53;5090668;28;20320;-59
2022/05/06 04:33:27;;;;;;;9.30;7.00;;;9.70;99.90;;;-141.84;71.17;17593.09;5090593;28;20231;-59
2022/05/06 04:35:57;;;;;;;13.77;8.90;;;9.90;99.90;;;-141.84;70.58;17597.16;5091376;28;20302;-58
2022/05/06 04:38:27;;;;;;;13.33;8.27;;;10.00;99.90;;;-141.84;70.71;17566.69;5090749;28;20647;-58
2022/05/06 04:40:58;;;;;;;6.50;5.43;;;10.10;99.90;;;-141.84;70.75;17578.88;5091522;28;20218;-60
2022/05/06 04:43:27;;;;;;;9.57;5.60;;;10.20;99.90;;;-141.84;70.92;17568.72;5090433;28;20258;-58
2022/05/06 04:45:56;;;;;;;6.03;5.07;;;10.20;99.90;;;-141.84;70.12;17601.22;5090682;28;20316;-59
2022/05/06 04:48:24;;;;;;;6.70;5.60;;;10.30;99.90;;;-141.84;69.35;17609.34;5090664;28;20238;-58
2022/05/06 04:50:52;;;;;;;6.43;5.50;;;10.40;99.90;;;-141.84;68.48;17635.75;5099573;28;20314;-59
2022/05/06 04:53:20;;;;;;;7.10;5.57;;;10.40;99.90;;;-141.84;68.20;17635.75;5111108;28;20195;-60
2022/05/06 04:55:50;;;;;;;9.33;5.93;;;10.50;99.90;;;-141.84;66.91;17656.06;5111259;28;20199;-60
2022/05/06 04:58:19;;;;;;;7.97;6.50;;;10.70;99.90;;;-141.84;65.30;17684.50;5110575;28;20223;-58
2022/05/06 05:00:47;;;;;;;8.13;5.87;;;11.10;99.90;;;-141.84;62.91;17733.25;5110879;28;20227;-60
2022/05/06 05:03:16;;;;;;;8.73;5.90;;;11.40;99.90;;;-141.84;60.35;17818.56;5110925;28;20223;-58
2022/05/06 05:05:44;;;;;;;7.70;5.10;;;11.90;99.90;;;-141.84;59.64;17844.97;5111020;28;20227;-58
2022/05/06 05:08:12;;;;;;;6.57;5.30;;;12.10;99.90;;;-141.84;58.02;17851.06;5112252;28;20303;-60
2022/05/06 05:10:40;;;;;;;6.30;5.70;;;12.40;99.90;;;-141.84;58.04;17903.88;5111072;28;20714;-59
2022/05/06 05:13:09;;;;;;;10.50;5.70;;;12.50;99.90;;;-141.84;56.89;17883.56;5111391;28;20310;-59
2022/05/06 05:15:37;;;;;;;6.77;5.37;;;12.50;99.90;;;-141.84;58.80;17838.88;5110833;28;20367;-59
2022/05/06 05:18:06;;;;;;;8.63;6.20;;;12.30;99.90;;;-141.84;59.20;17820.59;5111391;28;20250;-58
2022/05/06 05:20:35;;;;;;;9.47;5.83;;;12.20;99.90;;;-141.84;60.15;17820.59;5104200;28;20196;-59
2022/05/06 05:23:03;;;;;;;8.37;6.27;;;12.20;99.90;;;-141.84;59.41;17840.91;5091176;28;20683;-58
2022/05/06 05:25:31;;;;;;;11.10;6.07;;;12.20;99.90;;;-141.84;57.59;17889.66;5090466;28;20626;-59
2022/05/06 05:27:59;;;;;;;7.13;5.53;;;12.20;99.90;;;-141.84;57.87;17855.13;5090871;28;20226;-59
2022/05/06 05:30:28;;;;;;;5.80;5.07;;;12.10;99.90;;;-141.84;58.81;17855.13;5090890;28;20230;-59
2022/05/06 05:32:57;;;;;;;8.00;5.63;;;12.20;99.90;;;-141.84;58.77;17875.44;5091324;28;20227;-58
2022/05/06 05:35:25;;;;;;;6.27;5.27;;;12.30;99.90;;;-141.84;58.05;17887.63;5090450;28;20226;-59
2022/05/06 05:37:53;;;;;;;7.63;5.33;;;12.50;99.90;;;-141.84;56.98;17903.88;5092585;28;20287;-60
2022/05/06 05:40:21;;;;;;;8.30;5.47;;;12.60;99.90;;;-141.84;56.89;17897.78;5090939;28;20228;-59
2022/05/06 05:42:49;;;;;;;6.97;5.43;;;12.70;99.90;;;-141.84;57.16;17867.31;5090526;28;20307;-59
2022/05/06 05:48:22;;;;;;;7.73;5.53;;;12.70;99.90;;;-141.84;56.49;17899.81;5090770;28;20227;-61
2022/05/06 05:50:50;;;;;;;7.73;5.70;;;12.80;99.90;;;-141.84;56.38;17887.63;5098980;28;20237;-59
2022/05/06 05:53:21;;;;;;;7.90;6.07;;;12.80;99.90;;;-141.84;55.97;17946.56;5110779;28;20207;-57
2022/05/06 05:55:48;;;;;;;7.57;5.67;;;13.00;99.90;;;-141.84;55.46;17944.53;5111100;28;20269;-58
2022/05/06 05:58:16;;;;;;;7.33;5.87;;;13.10;99.90;;;-141.84;54.88;17970.94;5109582;28;20298;-59
2022/05/06 06:00:44;;;;;;;8.10;6.10;;;13.40;99.90;;;-141.84;54.50;17970.94;5110142;28;20223;-59
2022/05/06 06:03:14;;;;;;;9.33;6.00;;;13.30;99.90;;;-141.84;55.74;17934.38;5110830;28;20446;-58
2022/05/06 06:05:42;;;;;;;7.80;6.20;;;13.10;99.90;;;-141.84;55.45;17946.56;5110753;28;20276;-59
2022/05/06 06:08:10;;;;;;;8.17;5.50;;;13.10;99.90;;;-141.84;56.01;17938.44;5110923;28;20838;-58
2022/05/06 06:10:38;;;;;;;7.13;5.90;;;13.20;99.90;;;-141.84;56.65;17899.81;5110229;28;20788;-59
2022/05/06 06:13:07;;;;;;;7.20;6.30;;;13.30;99.90;;;-141.84;55.78;17956.72;5110846;28;20239;-58
2022/05/06 06:15:34;;;;;;;7.20;5.70;;;13.50;99.90;;;-141.84;55.98;17960.78;5110252;28;20306;-59
2022/05/06 06:18:03;;;;;;;9.13;6.50;;;13.70;99.90;;;-141.84;54.80;17954.69;5110779;28;20227;-59
2022/05/06 06:20:32;;;;;;;8.40;6.27;;;13.80;99.90;;;-141.84;55.20;17954.69;5110289;28;20376;-58
2022/05/06 06:23:00;;;;;;;8.33;6.40;;;13.90;99.90;;;-141.84;54.51;17972.97;5111200;28;20209;-60
2022/05/06 06:25:28;;;;;;;8.83;5.77;;;13.90;99.90;;;-141.84;54.72;18001.41;5110112;28;20310;-60
2022/05/06 06:27:56;;;;;;;7.33;6.13;;;14.00;99.90;;;-141.84;55.28;17930.31;5110319;28;20714;-59
2022/05/06 06:30:24;;;;;;;7.33;6.23;;;13.90;99.90;;;-141.84;55.59;17960.78;5109955;28;20718;-59
2022/05/06 06:32:53;;;;;;;7.60;6.10;;;13.90;99.90;;;-141.84;55.23;17977.03;5110673;28;20254;-59
2022/05/06 06:35:22;;;;;;;7.07;5.73;;;14.10;99.90;;;-141.84;55.42;17952.66;5110378;28;20215;-58
2022/05/06 06:37:51;;;;;;;8.77;6.23;;;14.20;99.90;;;-141.84;55.18;17989.22;5114829;28;20210;-58
2022/05/06 06:40:20;;;;;;;6.37;5.70;;;14.20;99.90;;;-141.84;55.50;17960.78;5114171;28;20251;-59
2022/05/06 06:42:48;;;;;;;7.03;6.33;;;14.10;99.90;;;-141.84;56.06;17960.78;5114118;28;20639;-61
2022/05/06 06:45:16;;;;;;;8.23;6.30;;;14.10;99.90;;;-141.84;56.36;17920.13;5114156;28;20226;-61
2022/05/06 06:47:44;;;;;;;10.17;6.73;;;14.00;99.90;;;-141.84;55.94;17946.56;5114067;28;20234;-59
2022/05/06 06:50:12;;;;;;;8.13;6.70;;;14.10;99.90;;;-141.84;56.55;17920.13;5112661;28;20298;-60
2022/05/06 06:52:40;;;;;;;7.00;6.27;;;14.10;99.90;;;-141.84;56.44;17932.34;5112942;28;20226;-59
2022/05/06 06:55:10;;;;;;;7.83;6.40;;;14.20;99.90;;;-141.84;56.52;17962.81;5112883;28;20231;-59
2022/05/06 06:57:38;;;;;;;9.20;6.70;;;14.20;99.90;;;-141.84;56.51;17975.00;5112678;28;20740;-58
2022/05/06 07:00:08;;;;;;;8.87;6.93;;;14.30;99.90;;;-141.84;56.87;17956.72;5112951;28;20306;-59
2022/05/06 07:02:40;;;;;;;8.40;6.70;;;14.40;99.90;;;-141.84;57.47;17932.34;5112833;28;20310;-58
2022/05/06 07:05:09;;;;;;;8.87;7.07;;;14.30;99.90;;;-141.84;57.45;17914.03;5113628;28;20619;-59
2022/05/06 07:13:43;;;;;;;10.17;6.73;;;14.40;99.90;;;-141.84;57.40;17918.09;5113021;28;20257;-59
2022/05/06 07:16:11;;;;;;;6.80;6.10;;;14.30;99.90;;;-141.84;57.97;17924.22;5112363;28;20229;-59
2022/05/06 07:18:39;;;;;;;9.10;6.30;;;14.40;99.90;;;-141.84;57.22;17936.41;5112806;28;20238;-59
2022/05/06 07:21:07;;;;;;;8.53;6.30;;;14.50;99.90;;;-141.84;54.32;17991.25;5110362;28;20254;-60
2022/05/06 07:23:35;;;;;;;7.15;6.45;;;14.60;99.90;;;-141.84;55.50;17946.56;5112772;28;20206;-59
2022/05/06 07:26:04;;;;;;;7.90;6.40;;;14.60;99.90;;;-141.84;56.36;17960.78;5112821;28;20643;-59
2022/05/06 07:28:33;;;;;;;10.10;6.57;;;14.60;99.90;;;-141.84;55.85;17977.03;5112243;28;20231;-59
2022/05/06 07:31:01;;;;;;;8.82;6.57;;;14.60;99.90;;;-141.84;55.58;17997.34;5112455;28;20758;-60
2022/05/06 07:33:29;;;;;;;7.97;6.07;;;14.70;99.90;;;-141.84;54.51;18007.50;5112323;28;20231;-59
2022/05/06 07:35:57;;;;;;;9.27;7.13;;;14.70;99.90;;;-141.84;53.70;17995.31;5112240;28;20310;-59
2022/05/06 07:38:25;;;;;;;8.27;5.82;;;14.80;99.90;;;-141.84;53.11;18035.94;5113206;28;20293;-59
2022/05/06 07:40:53;;;;;;;10.50;6.30;;;14.70;99.90;;;-141.84;53.02;18011.56;5113546;28;20203;-60
2022/05/06 07:43:22;;;;;;;8.47;5.73;;;14.80;99.90;;;-141.84;52.84;18074.53;5113093;28;20227;-60
2022/05/06 07:45:53;;;;;;;7.38;5.55;;;14.80;99.90;;;-141.84;53.67;18017.66;5112168;28;20303;-61
2022/05/06 07:48:21;;;;;;;6.07;5.32;;;14.90;99.90;;;-141.84;52.78;18042.03;5112678;28;20738;-60
2022/05/06 07:50:50;;;;;;;9.67;5.37;;;14.90;99.90;;;-141.84;52.35;18072.50;5110138;28;20727;-60
2022/05/06 07:53:19;;;;;;;7.55;5.05;;;15.00;99.90;;;-141.84;51.35;18082.66;5113101;28;20214;-60
2022/05/06 07:55:49;;;;;;;7.78;4.70;;;15.10;99.90;;;-141.84;50.71;18129.38;5113463;28;20319;-61
2022/05/06 07:58:17;;;;;;;5.50;4.40;;;15.10;99.90;;;-141.84;50.27;18117.19;5112801;28;20604;-59
2022/05/06 08:00:47;;;;;;;6.75;4.00;;;15.20;99.90;;;-141.84;50.27;18153.75;5110972;28;20219;-63
2022/05/06 08:06:07;;;;;;;5.25;3.90;;;15.30;99.90;;;-141.84;50.32;18186.25;5112512;28;20272;-61
2022/05/06 08:08:36;;;;;;;6.45;4.07;;;15.40;99.90;;;-141.84;50.57;18131.41;5112160;28;20283;-61
2022/05/06 08:11:04;;;;;;;6.20;4.38;;;15.40;99.90;;;-141.84;50.29;18145.63;5112627;28;20598;-60
2022/05/06 08:13:32;;;;;;;5.93;4.32;;;15.40;99.90;;;-141.84;50.50;18100.94;5110873;28;20250;-59
2022/05/06 08:16:02;;;;;;;4.75;4.25;;;15.50;99.90;;;-141.84;50.99;18131.41;5096420;28;20322;-62
2022/05/06 08:18:30;;;;;;;5.63;4.15;;;15.60;99.90;;;-141.84;50.46;18151.72;5112272;28;20488;-60
2022/05/06 08:20:59;;;;;;;6.43;4.35;;;15.70;99.90;;;-141.84;49.79;18165.94;5112019;28;20254;-60
2022/05/06 08:23:27;;;;;;;7.45;4.13;;;15.80;99.90;;;-141.84;49.12;18194.38;5111798;28;20229;-60
2022/05/06 08:25:55;;;;;;;8.80;4.80;;;15.90;99.90;;;-141.84;49.22;18192.34;5112312;28;20297;-59
2022/05/06 08:28:24;;;;;;;6.30;4.47;;;15.80;99.90;;;-141.84;49.43;18194.38;5112555;28;20203;-58
2022/05/06 08:30:52;;;;;;;5.22;4.70;;;15.90;99.90;;;-141.84;49.82;18182.19;5111538;28;20227;-56
2022/05/06 08:33:23;;;;;;;5.65;4.90;;;15.90;99.90;;;-141.84;49.60;18204.53;5091452;28;20242;-57
2022/05/06 08:35:51;;;;;;;7.80;5.70;;;15.90;99.90;;;-141.84;49.39;18232.97;5091789;28;20285;-61
2022/05/06 08:38:19;;;;;;;6.22;5.15;;;16.00;99.90;;;-141.84;49.97;18184.22;5091265;28;20764;-59
2022/05/06 08:40:49;;;;;;;6.90;5.63;;;16.00;99.90;;;-141.84;49.17;18180.16;5091734;28;20208;-61
2022/05/06 08:43:18;;;;;;;5.60;5.03;;;16.00;99.90;;;-141.84;48.98;18196.41;5091786;28;20212;-60
2022/05/06 08:51:45;;;;;;;6.43;5.18;;;16.30;99.90;;;-141.84;47.60;18298.00;5110532;28;20244;-59
2022/05/06 08:54:14;;;;;;;12.23;5.82;;;16.50;99.90;;;-141.84;47.15;18261.44;5111376;28;20777;-59
2022/05/06 08:56:43;;;;;;;6.90;6.20;;;16.60;99.90;;;-141.84;46.81;18310.19;5111815;28;20259;-59
2022/05/06 08:59:11;;;;;;;8.70;5.82;;;16.70;99.90;;;-141.84;47.47;18287.84;5111052;28;20204;-59
2022/05/06 09:01:39;;;;;;;6.63;5.93;;;16.60;99.90;;;-141.84;47.34;18285.81;5112307;28;20205;-57
2022/05/06 09:04:09;;;;;;;7.97;5.15;;;16.60;99.90;;;-141.84;46.81;18314.25;5111303;28;20223;-56
2022/05/06 09:06:37;;;;;;;6.53;4.90;;;16.70;99.90;;;-141.84;47.09;18334.56;5111909;28;20219;-56
2022/05/06 09:09:05;;;;;;;5.80;4.80;;;16.60;99.90;;;-141.84;47.39;18298.00;5111900;28;20253;-59
2022/05/06 09:16:39;;;;;;;6.90;4.53;;;16.80;99.90;;;-141.84;46.49;18326.44;5111249;28;20253;-60
2022/05/06 09:17:19;;;;;;;5.35;4.60;;;16.80;99.90;;;-141.84;46.44;18310.19;5111322;28;20290;-63
2022/05/06 09:19:49;;;;;;;5.03;4.03;;;16.70;99.90;;;-141.84;45.47;18367.06;5112037;28;20584;-62
2022/05/06 09:22:17;;;;;;;4.00;3.70;;;16.80;99.90;;;-141.84;44.66;18415.81;5110144;28;20568;-61
2022/05/06 09:24:48;;;;;;;4.80;4.30;;;17.00;99.90;;;-141.84;44.24;18446.31;5090318;28;20603;-61
2022/05/06 09:27:18;;;;;;;5.38;3.90;;;17.20;99.90;;;-141.84;44.46;18484.91;5090814;28;20443;-62
2022/05/06 09:29:48;;;;;;;7.40;4.05;;;17.20;99.90;;;-141.84;43.84;18448.34;5090610;28;20310;-60
2022/05/06 09:32:22;;;;;;;5.65;4.53;;;17.40;99.90;;;-141.84;43.80;18450.38;5090470;28;20643;-59
2022/05/06 09:34:54;;;;;;;5.30;4.47;;;17.40;99.90;;;-141.84;43.56;18488.97;5091320;28;20192;-61
2022/05/06 09:37:35;;;;;;;4.80;4.20;;;17.40;99.90;;;-141.84;43.30;18493.03;5090878;28;20339;-59
2022/05/06 09:40:10;;;;;;;6.72;4.32;;;17.50;99.90;;;-141.84;43.72;18486.94;5090132;28;20235;-62
2022/05/06 09:42:40;;;;;;;4.35;3.95;;;17.50;99.90;;;-141.84;44.70;18413.78;5090624;28;20235;-61
2022/05/06 09:45:11;;;;;;;7.85;4.38;;;17.40;99.90;;;-141.84;45.61;18367.06;5090257;28;20230;-61
2022/05/06 09:47:42;;;;;;;6.53;4.10;;;17.30;99.90;;;-141.84;45.76;18411.75;5090579;28;20784;-60
2022/05/06 09:50:12;;;;;;;5.38;4.30;;;17.20;99.90;;;-141.84;45.78;18399.56;5093777;28;20248;-60
2022/05/06 09:52:40;;;;;;;5.43;4.38;;;17.30;99.90;;;-141.84;44.70;18458.50;5111266;28;20742;-60
2022/05/06 09:55:10;;;;;;;6.57;3.83;;;17.40;99.90;;;-141.84;43.76;18458.50;5110170;28;20708;-59
2022/05/06 09:57:38;;;;;;;5.75;3.63;;;17.50;99.90;;;-141.84;43.35;18464.59;5110801;28;20250;-61
2022/05/06 10:00:08;;;;;;;4.55;4.10;;;17.50;99.90;;;-141.84;43.19;18521.47;5092468;28;20227;-59
2022/05/06 10:02:38;;;;;;;5.00;3.90;;;17.80;99.90;;;-141.84;42.29;18566.16;5111035;28;20594;-61
2022/05/06 10:05:10;;;;;;;6.22;4.35;;;18.10;99.90;;;-141.84;42.27;18568.19;5110466;28;20190;-60
2022/05/06 10:07:44;;;;;;;8.88;4.13;;;18.30;99.90;;;-141.84;42.33;18608.84;5111302;28;20198;-60
2022/05/06 10:10:21;;;;;;;6.95;4.28;;;18.50;99.90;;;-141.84;41.73;18623.06;5110704;28;20313;-60
2022/05/06 10:12:58;;;;;;;5.18;4.03;;;18.80;99.90;;;-141.84;41.56;18651.50;5115065;28;20229;-58
2022/05/06 10:15:29;;;;;;;5.93;4.38;;;18.90;99.90;;;-141.84;41.11;18651.50;5113716;28;20409;-60
2022/05/06 10:17:59;;;;;;;4.88;3.75;;;18.90;99.90;;;-141.84;41.18;18684.00;5092421;28;20227;-61
2022/05/06 10:20:50;;;;;;;5.35;4.35;;;19.00;99.90;;;-141.84;40.97;18720.59;5097864;28;20231;-61
2022/05/06 10:23:21;;;;;;;4.85;3.72;;;19.20;99.90;;;-141.84;40.23;18700.25;5102932;28;20223;-60
2022/05/06 10:25:54;;;;;;;4.82;3.50;;;19.30;99.90;;;-141.84;40.90;18671.81;5093016;28;20176;-60
2022/05/06 10:34:30;;;;;;;5.07;3.25;;;18.50;99.90;;;-141.84;42.13;18582.44;5095205;28;20261;-60
2022/05/06 10:37:02;;;;;;;4.70;2.70;;;18.10;99.90;;;-141.84;42.92;18525.53;5094654;28;20259;-61
2022/05/06 10:39:37;;;;;;;3.65;2.55;;;17.90;99.90;;;-141.84;42.92;18491.00;5113823;28;20219;-61
2022/05/06 10:42:08;;;;;;;2.72;2.42;;;17.80;99.90;;;-141.84;41.49;18616.97;5114784;28;20263;-61
2022/05/06 10:44:38;;;;;;;3.47;2.20;;;17.90;99.90;;;-141.84;40.53;18700.25;5114500;28;20306;-61
2022/05/06 10:47:50;;;;;;;4.00;2.28;;;18.30;99.90;;;-141.84;39.11;18771.38;5115013;28;20290;-59
2022/05/06 10:50:21;;;;;;;3.95;2.35;;;18.80;99.90;;;-141.84;38.49;18836.41;5114672;28;20325;-60
2022/05/06 10:52:57;;;;;;;3.33;2.30;;;19.10;99.90;;;-141.84;38.11;18840.47;5115008;28;20211;-63
2022/05/06 10:55:27;;;;;;;3.22;2.25;;;19.40;99.90;;;-141.84;38.48;18842.50;5114870;28;20199;-61